createdAt,value
2023-02-09T00:01:21.534Z,89.51
2023-02-09T00:03:48.339Z,89.62
2023-02-09T00:06:17.812Z,90.87
2023-02-09T00:08:44.851Z,91.50
2023-02-09T00:11:22.404Z,90.87
2023-02-09T00:13:48.927Z,91.43
2023-02-09T00:16:15.540Z,91.95
2023-02-09T00:18:42.042Z,92.29
2023-02-09T00:21:10.895Z,92.92
2023-02-09T00:23:40.716Z,92.57
2023-02-09T00:26:10.441Z,92.70
2023-02-09T00:28:37.587Z,92.75
2023-02-09T00:31:12.503Z,92.33
2023-02-09T00:33:41.796Z,92.54
2023-02-09T00:36:11.691Z,92.85
2023-02-09T00:38:39.142Z,93.94
2023-02-09T00:41:06.172Z,94.10
2023-02-09T00:43:33.445Z,93.68
2023-02-09T00:45:59.944Z,92.84
2023-02-09T00:48:26.714Z,92.43
2023-02-09T00:50:54.402Z,93.41
2023-02-09T00:53:22.115Z,93.52
2023-02-09T00:55:48.977Z,93.45
2023-02-09T00:58:16.035Z,93.01
2023-02-09T01:00:42.841Z,93.42
2023-02-09T01:03:09.580Z,93.68
2023-02-09T01:05:40.505Z,93.90
2023-02-09T01:08:07.227Z,95.37
2023-02-09T01:10:34.345Z,94.64
2023-02-09T01:13:00.800Z,95.48
2023-02-09T01:15:28.905Z,94.43
2023-02-09T01:17:55.356Z,93.36
2023-02-09T01:20:21.896Z,94.22
2023-02-09T01:22:48.389Z,94.53
2023-02-09T01:25:14.838Z,94.89
2023-02-09T01:27:42.296Z,95.37
2023-02-09T01:30:09.795Z,95.29
2023-02-09T01:32:36.926Z,96.66
2023-02-09T01:35:04.149Z,96.15
2023-02-09T01:37:30.624Z,94.92
2023-02-09T01:39:57.186Z,94.83
2023-02-09T01:42:23.648Z,95.74
2023-02-09T01:44:50.297Z,96.45
2023-02-09T01:47:18.780Z,97.97
2023-02-09T01:49:48.977Z,97.46
2023-02-09T01:52:20.501Z,96.87
2023-02-09T01:54:52.712Z,96.40
2023-02-09T02:01:28.917Z,96.51
2023-02-09T02:03:55.682Z,98.35
2023-02-09T02:06:22.236Z,99.93
2023-02-09T02:08:58.002Z,100.00
2023-02-09T02:11:28.137Z,100.00
2023-02-09T02:13:54.641Z,99.98
2023-02-09T02:16:53.579Z,99.34
2023-02-09T02:19:43.975Z,98.17
2023-02-09T02:22:25.542Z,98.74
2023-02-09T02:25:10.646Z,100.00
2023-02-09T02:28:20.015Z,100.00
2023-02-09T02:31:18.091Z,100.00
2023-02-09T02:34:04.780Z,100.00
2023-02-09T02:36:55.475Z,99.57
2023-02-09T02:39:33.501Z,99.89
2023-02-09T02:42:33.463Z,98.92
2023-02-09T02:45:11.192Z,98.58
2023-02-09T02:47:42.020Z,98.65
2023-02-09T02:50:16.778Z,98.47
2023-02-09T02:52:47.478Z,98.52
2023-02-09T02:55:16.692Z,98.27
2023-02-09T02:57:47.228Z,98.90
2023-02-09T03:00:19.092Z,97.78
2023-02-09T03:02:53.481Z,97.73
2023-02-09T03:05:23.883Z,97.36
2023-02-09T03:07:50.662Z,97.86
2023-02-09T03:10:43.613Z,99.63
2023-02-09T03:13:12.972Z,100.00
2023-02-09T03:15:56.972Z,99.70
2023-02-09T03:18:39.619Z,100.00
2023-02-09T03:21:18.888Z,99.65
2023-02-09T03:23:53.684Z,99.36
2023-02-09T03:26:25.186Z,98.34
2023-02-09T03:28:56.976Z,100.00
2023-02-09T03:31:24.814Z,100.00
2023-02-09T03:33:51.847Z,100.00
2023-02-09T03:36:20.361Z,100.00
2023-02-09T03:38:46.767Z,100.00
2023-02-09T03:41:13.245Z,100.00
2023-02-09T03:43:58.297Z,99.90
2023-02-09T03:46:24.777Z,99.79
2023-02-09T03:48:51.359Z,100.00
2023-02-09T03:51:17.796Z,100.00
2023-02-09T03:53:44.216Z,100.00
2023-02-09T03:56:10.633Z,99.97
2023-02-09T03:58:37.143Z,99.30
2023-02-09T04:01:09.268Z,99.14
2023-02-09T04:03:36.424Z,99.61
2023-02-09T04:06:03.668Z,100.00
2023-02-09T04:08:30.178Z,99.85
2023-02-09T04:10:57.551Z,100.00
2023-02-09T04:13:25.020Z,100.00
2023-02-09T04:15:52.000Z,100.00
2023-02-09T04:18:18.641Z,100.00
2023-02-09T04:20:45.861Z,100.00
2023-02-09T04:23:12.940Z,100.00
2023-02-09T04:25:39.623Z,100.00
2023-02-09T04:28:06.119Z,100.00
2023-02-09T04:30:32.685Z,100.00
2023-02-09T04:32:59.361Z,100.00
2023-02-09T04:35:25.979Z,100.00
2023-02-09T04:37:52.449Z,100.00
2023-02-09T04:40:19.294Z,100.00
2023-02-09T04:42:46.814Z,100.00
2023-02-09T04:45:13.382Z,100.00
2023-02-09T04:47:39.865Z,100.00
2023-02-09T04:50:06.512Z,100.00
2023-02-09T04:52:33.012Z,100.00
2023-02-09T04:54:59.469Z,100.00
2023-02-09T04:57:44.535Z,100.00
2023-02-09T05:00:11.655Z,100.00
2023-02-09T05:02:38.101Z,100.00
2023-02-09T05:05:04.782Z,100.00
2023-02-09T05:07:31.237Z,100.00
2023-02-09T05:09:57.669Z,100.00
2023-02-09T05:12:24.160Z,100.00
2023-02-09T05:14:50.680Z,100.00
2023-02-09T05:17:20.987Z,100.00
2023-02-09T05:19:48.643Z,100.00
2023-02-09T05:22:15.204Z,100.00
2023-02-09T05:24:41.650Z,100.00
2023-02-09T05:27:08.166Z,100.00
2023-02-09T05:29:34.671Z,100.00
2023-02-09T05:32:01.221Z,100.00
2023-02-09T05:34:27.671Z,100.00
2023-02-09T05:36:54.177Z,100.00
2023-02-09T05:39:20.640Z,100.00
2023-02-09T05:42:05.732Z,100.00
2023-02-09T05:44:32.240Z,100.00
2023-02-09T05:46:58.772Z,100.00
2023-02-09T05:49:25.312Z,100.00
2023-02-09T05:51:51.876Z,100.00
2023-02-09T05:54:18.354Z,100.00
2023-02-09T05:56:44.831Z,100.00
2023-02-09T05:59:11.282Z,100.00
2023-02-09T06:01:37.911Z,100.00
2023-02-09T06:04:04.541Z,100.00
2023-02-09T06:06:31.298Z,100.00
2023-02-09T06:08:57.787Z,100.00
2023-02-09T06:11:24.239Z,100.00
2023-02-09T06:13:50.706Z,100.00
2023-02-09T06:16:17.184Z,100.00
2023-02-09T06:18:43.608Z,100.00
2023-02-09T06:21:12.029Z,100.00
2023-02-09T06:23:39.370Z,100.00
2023-02-09T06:26:11.559Z,100.00
2023-02-09T06:28:38.426Z,100.00
2023-02-09T06:31:06.844Z,100.00
2023-02-09T06:33:35.451Z,100.00
2023-02-09T06:36:02.493Z,100.00
2023-02-09T06:38:36.622Z,100.00
2023-02-09T06:41:04.246Z,100.00
2023-02-09T06:43:30.745Z,100.00
2023-02-09T06:45:57.331Z,100.00
2023-02-09T06:48:23.826Z,100.00
2023-02-09T06:50:50.263Z,100.00
2023-02-09T06:53:18.645Z,100.00
2023-02-09T06:55:45.212Z,100.00
2023-02-09T06:58:11.682Z,100.00
2023-02-09T07:00:38.180Z,100.00
2023-02-09T07:03:04.728Z,100.00
2023-02-09T07:05:31.637Z,100.00
2023-02-09T07:07:58.256Z,100.00
2023-02-09T07:10:24.848Z,100.00
2023-02-09T07:12:51.519Z,100.00
2023-02-09T07:15:18.112Z,100.00
2023-02-09T07:17:44.887Z,100.00
2023-02-09T07:20:11.786Z,100.00
2023-02-09T07:22:38.383Z,100.00
2023-02-09T07:25:05.389Z,100.00
2023-02-09T07:27:31.947Z,100.00
2023-02-09T07:30:00.752Z,100.00
2023-02-09T07:32:27.799Z,100.00
2023-02-09T07:34:54.347Z,100.00
2023-02-09T07:37:20.795Z,100.00
2023-02-09T07:39:47.424Z,99.84
2023-02-09T07:42:13.969Z,100.00
2023-02-09T07:44:48.793Z,100.00
2023-02-09T07:47:15.243Z,99.36
2023-02-09T07:49:41.738Z,98.09
2023-02-09T07:52:08.187Z,97.37
2023-02-09T07:54:34.652Z,99.49
2023-02-09T07:57:01.132Z,99.85
2023-02-09T07:59:27.780Z,100.00
2023-02-09T08:01:54.240Z,100.00
2023-02-09T08:04:20.922Z,100.00
2023-02-09T08:06:47.409Z,100.00
2023-02-09T08:09:18.091Z,99.13
2023-02-09T08:11:58.750Z,97.64
2023-02-09T08:14:31.829Z,95.09
2023-02-09T08:17:23.591Z,94.36
2023-02-09T08:20:02.269Z,93.61
2023-02-09T08:22:33.557Z,94.17
2023-02-09T08:25:02.837Z,92.15
2023-02-09T08:27:30.220Z,91.68
2023-02-09T08:29:58.413Z,89.86
2023-02-09T08:32:24.869Z,90.85
2023-02-09T08:34:51.360Z,88.94
2023-02-09T08:37:17.871Z,88.18
2023-02-09T08:39:45.198Z,86.40
2023-02-09T08:42:11.692Z,83.35
2023-02-09T08:44:38.148Z,80.91
2023-02-09T08:47:04.840Z,79.72
2023-02-09T08:49:31.347Z,80.65
2023-02-09T08:51:57.794Z,79.35
2023-02-09T08:54:25.326Z,75.13
2023-02-09T08:56:51.758Z,73.07
2023-02-09T08:59:20.062Z,70.06
2023-02-09T09:01:46.694Z,69.13
2023-02-09T09:04:13.534Z,72.58
2023-02-09T09:06:40.055Z,76.15
2023-02-09T09:09:06.645Z,75.99
2023-02-09T09:11:33.208Z,78.47
2023-02-09T09:13:59.674Z,79.75
2023-02-09T09:16:26.171Z,80.97
2023-02-09T09:18:52.654Z,80.06
2023-02-09T09:21:19.418Z,75.16
2023-02-09T09:23:46.913Z,76.42
2023-02-09T09:26:13.806Z,78.38
2023-02-09T09:28:40.288Z,80.37
2023-02-09T09:31:12.918Z,80.55
2023-02-09T09:33:40.217Z,77.21
2023-02-09T09:36:07.568Z,77.10
2023-02-09T09:38:35.930Z,76.75
2023-02-09T09:41:04.792Z,74.83
2023-02-09T09:43:39.384Z,75.84
2023-02-09T09:46:12.054Z,70.48
2023-02-09T09:48:45.697Z,64.98
2023-02-09T09:51:18.604Z,59.01
2023-02-09T09:53:49.421Z,56.80
2023-02-09T09:56:20.042Z,54.55
2023-02-09T09:58:47.382Z,55.64
2023-02-09T10:01:16.023Z,54.40
2023-02-09T10:03:42.820Z,55.71
2023-02-09T10:06:22.889Z,50.45
2023-02-09T10:08:55.093Z,52.04
2023-02-09T10:11:33.118Z,48.49
2023-02-09T10:13:59.603Z,49.30
2023-02-09T10:16:34.427Z,50.28
2023-02-09T10:19:05.816Z,51.02
2023-02-09T10:21:36.738Z,48.11
2023-02-09T10:24:12.739Z,49.29
2023-02-09T10:26:40.744Z,46.57
2023-02-09T10:29:13.376Z,45.94
2023-02-09T10:31:41.406Z,45.83
2023-02-09T10:34:17.088Z,44.23
2023-02-09T10:36:54.308Z,42.39
2023-02-09T10:39:39.350Z,43.77
2023-02-09T10:42:19.220Z,43.40
2023-02-09T10:44:50.360Z,45.36
2023-02-09T10:47:19.815Z,46.32
2023-02-09T10:50:07.711Z,43.15
2023-02-09T10:52:37.152Z,42.13
2023-02-09T10:55:17.409Z,40.23
2023-02-09T10:57:43.896Z,39.76
2023-02-09T11:00:16.202Z,39.73
2023-02-09T11:02:52.236Z,39.98
2023-02-09T11:05:21.716Z,39.98
2023-02-09T11:07:58.055Z,39.57
2023-02-09T11:10:27.114Z,41.10
2023-02-09T11:12:53.571Z,39.79
2023-02-09T11:15:26.687Z,38.86
2023-02-09T11:18:01.184Z,41.12
2023-02-09T11:20:35.486Z,39.29
2023-02-09T11:23:47.048Z,40.88
2023-02-09T11:26:32.297Z,41.35
2023-02-09T11:29:10.503Z,42.23
2023-02-09T11:32:01.841Z,42.23
2023-02-09T11:34:38.088Z,40.56
2023-02-09T11:37:20.883Z,41.44
2023-02-09T11:39:52.634Z,44.20
2023-02-09T11:42:45.650Z,43.45
2023-02-09T11:45:12.094Z,38.92
2023-02-09T11:47:58.334Z,39.83
2023-02-09T11:50:44.320Z,39.11
2023-02-09T11:53:23.484Z,40.30
2023-02-09T11:55:57.507Z,38.45
2023-02-09T11:58:51.779Z,38.44
2023-02-09T12:01:29.730Z,37.57
2023-02-09T12:04:03.980Z,38.71
2023-02-09T12:06:37.536Z,39.71
2023-02-09T12:09:37.735Z,40.57
2023-02-09T12:12:15.326Z,38.43
2023-02-09T12:14:49.590Z,38.80
2023-02-09T12:17:29.652Z,41.34
2023-02-09T12:19:59.122Z,40.00
2023-02-09T12:22:34.863Z,39.17
2023-02-09T12:25:10.458Z,39.35
2023-02-09T12:27:38.947Z,40.35
2023-02-09T12:30:42.393Z,38.61
2023-02-09T12:33:23.914Z,41.27
2023-02-09T12:36:09.049Z,42.11
2023-02-09T12:38:56.333Z,41.54
2023-02-09T12:41:28.507Z,41.84
2023-02-09T12:44:10.267Z,42.05
2023-02-09T12:46:51.733Z,43.22
2023-02-09T12:49:31.991Z,42.76
2023-02-09T12:52:01.417Z,42.69
2023-02-09T12:54:41.461Z,40.29
2023-02-09T12:57:17.387Z,40.32
2023-02-09T12:59:50.077Z,40.56
2023-02-09T13:02:38.053Z,41.13
2023-02-09T13:05:19.716Z,42.73
2023-02-09T13:07:53.218Z,42.87
2023-02-09T13:10:48.262Z,45.49
2023-02-09T13:13:19.616Z,45.50
2023-02-09T13:16:07.008Z,44.06
2023-02-09T13:19:00.535Z,44.46
2023-02-09T13:22:04.679Z,44.92
2023-02-09T13:24:41.500Z,46.01
2023-02-09T13:27:22.809Z,42.29
2023-02-09T13:29:57.395Z,40.81
2023-02-09T13:32:38.162Z,40.35
2023-02-09T13:35:21.480Z,40.10
2023-02-09T13:37:54.119Z,40.07
2023-02-09T13:40:26.705Z,39.93
2023-02-09T13:42:58.964Z,40.73
2023-02-09T13:45:26.835Z,42.83
2023-02-09T13:47:55.470Z,43.89
2023-02-09T13:50:24.349Z,45.18
2023-02-09T13:52:51.126Z,46.97
2023-02-09T13:55:25.340Z,49.05
2023-02-09T13:58:04.413Z,48.16
2023-02-09T14:00:40.390Z,49.81
2023-02-09T14:03:46.960Z,49.40
2023-02-09T14:06:39.883Z,49.65
2023-02-09T14:09:15.578Z,52.30
2023-02-09T14:11:51.898Z,51.64
2023-02-09T14:14:25.998Z,50.01
2023-02-09T14:17:24.497Z,50.96
2023-02-09T14:19:52.824Z,51.32
2023-02-09T14:22:39.848Z,51.65
2023-02-09T14:25:22.469Z,50.85
2023-02-09T14:27:49.529Z,51.75
2023-02-09T14:30:23.353Z,51.37
2023-02-09T14:32:56.006Z,53.45
2023-02-09T14:35:28.792Z,51.39
2023-02-09T14:37:58.477Z,53.39
2023-02-09T14:40:28.110Z,51.23
2023-02-09T14:43:12.540Z,52.69
2023-02-09T14:45:48.515Z,51.68
2023-02-09T14:48:27.368Z,50.38
2023-02-09T14:50:56.485Z,52.04
2023-02-09T14:53:26.151Z,52.97
2023-02-09T14:55:56.503Z,54.86
2023-02-09T14:58:26.301Z,53.17
2023-02-09T15:00:55.223Z,53.71
2023-02-09T15:03:22.252Z,54.89
2023-02-09T15:05:51.187Z,57.63
2023-02-09T15:08:21.143Z,58.42
2023-02-09T15:11:28.422Z,57.26
2023-02-09T15:14:03.635Z,57.97
2023-02-09T15:16:31.100Z,58.55
2023-02-09T15:18:57.657Z,57.59
2023-02-09T15:21:24.359Z,55.20
2023-02-09T15:23:50.805Z,54.04
2023-02-09T15:26:18.657Z,52.81
2023-02-09T15:28:45.094Z,57.37
2023-02-09T15:31:15.954Z,58.17
2023-02-09T15:33:43.095Z,55.38
2023-02-09T15:36:19.020Z,53.46
2023-02-09T15:38:45.502Z,54.35
2023-02-09T15:41:30.744Z,59.22
2023-02-09T15:44:15.913Z,61.14
2023-02-09T15:47:01.893Z,54.59
2023-02-09T15:49:30.903Z,60.82
2023-02-09T15:51:57.363Z,62.17
2023-02-09T15:54:29.570Z,60.38
2023-02-09T15:56:56.001Z,64.10
2023-02-09T15:59:23.630Z,62.74
2023-02-09T16:01:50.791Z,67.73
2023-02-09T16:04:18.174Z,69.08
2023-02-09T16:06:53.130Z,61.17
2023-02-09T16:09:23.515Z,65.02
2023-02-09T16:11:50.075Z,68.72
2023-02-09T16:14:20.298Z,64.99
2023-02-09T16:16:47.449Z,67.53
2023-02-09T16:19:14.612Z,69.09
2023-02-09T16:21:44.372Z,65.83
2023-02-09T16:24:30.263Z,65.50
2023-02-09T16:26:59.830Z,65.08
2023-02-09T16:29:26.410Z,63.93
2023-02-09T16:31:53.083Z,65.46
2023-02-09T16:34:19.620Z,66.57
2023-02-09T16:36:48.438Z,67.85
2023-02-09T16:39:20.431Z,71.99
2023-02-09T16:41:48.074Z,71.28
2023-02-09T16:44:26.993Z,76.15
2023-02-09T16:46:56.636Z,77.36
2023-02-09T16:49:37.449Z,79.74
2023-02-09T16:52:12.513Z,78.57
2023-02-09T16:54:54.677Z,77.40
2023-02-09T16:57:25.831Z,79.10
2023-02-09T16:59:53.416Z,77.82
2023-02-09T17:02:29.155Z,78.98
2023-02-09T17:04:55.759Z,82.88
2023-02-09T17:07:28.141Z,82.28
2023-02-09T17:09:57.403Z,79.66
2023-02-09T17:12:23.934Z,79.58
2023-02-09T17:14:50.446Z,81.48
2023-02-09T17:17:20.097Z,81.75
2023-02-09T17:19:49.491Z,82.39
2023-02-09T17:22:16.362Z,81.99
2023-02-09T17:24:42.944Z,82.03
2023-02-09T17:27:10.141Z,82.46
2023-02-09T17:29:36.589Z,82.94
2023-02-09T17:32:03.516Z,82.27
2023-02-09T17:34:30.193Z,82.19
2023-02-09T17:36:57.993Z,82.89
2023-02-09T17:39:24.967Z,83.13
2023-02-09T17:41:51.700Z,83.43
2023-02-09T17:44:43.687Z,83.23
2023-02-09T17:47:20.039Z,82.31
2023-02-09T17:49:46.986Z,82.31
2023-02-09T17:52:20.157Z,81.84
2023-02-09T17:54:47.567Z,81.06
2023-02-09T17:57:16.215Z,82.18
2023-02-09T17:59:43.236Z,82.53
2023-02-09T18:02:19.603Z,86.25
2023-02-09T18:04:46.242Z,86.08
2023-02-09T18:07:14.468Z,85.87
2023-02-09T18:09:40.942Z,86.15
2023-02-09T18:12:16.723Z,86.33
2023-02-09T18:14:43.154Z,87.55
2023-02-09T18:17:09.689Z,88.07
2023-02-09T18:19:36.235Z,86.80
2023-02-09T18:22:02.908Z,86.44
2023-02-09T18:24:34.863Z,84.67
2023-02-09T18:27:01.970Z,85.24
2023-02-09T18:29:31.330Z,87.58
2023-02-09T18:32:00.105Z,86.15
2023-02-09T18:34:27.640Z,85.54
2023-02-09T18:36:54.156Z,87.94
2023-02-09T18:39:20.665Z,88.20
2023-02-09T18:41:53.830Z,90.93
2023-02-09T18:44:24.248Z,90.86
2023-02-09T18:46:50.719Z,89.87
2023-02-09T18:49:17.156Z,88.22
2023-02-09T18:51:43.626Z,88.47
2023-02-09T18:54:10.095Z,87.40
2023-02-09T18:56:36.561Z,86.51
2023-02-09T18:59:03.036Z,86.97
2023-02-09T19:01:29.509Z,87.64
2023-02-09T19:03:56.016Z,87.73
2023-02-09T19:06:25.181Z,86.84
2023-02-09T19:08:52.291Z,86.61
2023-02-09T19:11:21.325Z,88.02
2023-02-09T19:14:07.134Z,88.67
2023-02-09T19:16:35.386Z,89.94
2023-02-09T19:19:01.906Z,89.40
2023-02-09T19:21:28.890Z,90.89
2023-02-09T19:23:55.510Z,92.28
2023-02-09T19:26:22.058Z,93.19
2023-02-09T19:28:48.657Z,92.84
2023-02-09T19:31:16.941Z,91.83
2023-02-09T19:33:43.652Z,90.04
2023-02-09T19:36:10.249Z,89.09
2023-02-09T19:38:36.716Z,88.90
2023-02-09T19:41:10.655Z,89.51
2023-02-09T19:43:39.304Z,89.24
2023-02-09T19:46:06.345Z,88.86
2023-02-09T19:48:33.060Z,90.20
2023-02-09T19:50:59.919Z,90.35
2023-02-09T19:53:27.203Z,90.16
2023-02-09T19:55:54.408Z,88.63
2023-02-09T19:58:24.031Z,89.04
2023-02-09T20:00:51.883Z,89.20
2023-02-09T20:03:18.774Z,89.51
2023-02-09T20:05:45.935Z,88.75
2023-02-09T20:08:15.715Z,89.34
2023-02-09T20:10:43.998Z,89.98
2023-02-09T20:13:12.826Z,88.64
2023-02-09T20:15:43.863Z,89.56
2023-02-09T20:18:12.725Z,90.83
2023-02-09T20:20:41.956Z,91.31
2023-02-09T20:23:09.491Z,94.09
2023-02-09T20:25:35.966Z,92.97
2023-02-09T20:28:02.760Z,92.66
2023-02-09T20:30:29.259Z,92.65
2023-02-09T20:32:55.741Z,92.63
2023-02-09T20:35:22.400Z,92.07
2023-02-09T20:37:49.327Z,92.73
2023-02-09T20:40:15.938Z,93.58
2023-02-09T20:43:00.854Z,93.84
2023-02-09T20:45:46.018Z,92.98
2023-02-09T20:48:13.673Z,93.56
2023-02-09T20:50:40.192Z,93.06
2023-02-09T20:53:06.684Z,93.25
2023-02-09T20:55:33.186Z,94.71
2023-02-09T20:57:59.671Z,95.84
2023-02-09T21:00:26.203Z,95.58
2023-02-09T21:02:52.683Z,95.57
2023-02-09T21:05:19.180Z,97.04
2023-02-09T21:07:45.643Z,96.37
2023-02-09T21:10:12.976Z,96.72
2023-02-09T21:12:39.534Z,96.94
2023-02-09T21:15:06.437Z,98.38
2023-02-09T21:17:32.980Z,98.94
2023-02-09T21:19:59.438Z,99.73
2023-02-09T21:22:25.884Z,99.54
2023-02-09T21:24:52.332Z,99.19
2023-02-09T21:27:19.264Z,99.88
2023-02-09T21:29:45.822Z,100.00
2023-02-09T21:32:12.285Z,100.00
2023-02-09T21:34:38.764Z,100.00
2023-02-09T21:37:07.908Z,100.00
2023-02-09T21:39:34.501Z,100.00
2023-02-09T21:42:19.467Z,99.29
2023-02-09T21:44:46.997Z,99.64
2023-02-09T21:47:13.545Z,100.00
2023-02-09T21:49:40.067Z,100.00
2023-02-09T21:52:06.560Z,100.00
2023-02-09T21:54:33.873Z,100.00
2023-02-09T21:57:01.654Z,100.00
2023-02-09T21:59:28.805Z,100.00
2023-02-09T22:01:55.539Z,100.00
2023-02-09T22:04:22.097Z,100.00
2023-02-09T22:06:49.172Z,100.00
2023-02-09T22:09:15.969Z,100.00
2023-02-09T22:11:42.401Z,99.22
2023-02-09T22:14:09.178Z,99.02
2023-02-09T22:16:35.682Z,99.15
2023-02-09T22:19:02.188Z,99.07
2023-02-09T22:21:28.658Z,99.33
2023-02-09T22:23:55.311Z,100.00
2023-02-09T22:26:21.827Z,100.00
2023-02-09T22:28:48.672Z,100.00
2023-02-09T22:31:17.571Z,100.00
2023-02-09T22:33:44.530Z,99.81
2023-02-09T22:36:13.671Z,99.37
2023-02-09T22:38:40.578Z,100.00
2023-02-09T22:41:21.201Z,100.00
2023-02-09T22:43:59.553Z,99.76
2023-02-09T22:46:28.848Z,99.60
2023-02-09T22:48:58.489Z,100.00
2023-02-09T22:51:30.785Z,100.00
2023-02-09T22:53:58.881Z,100.00
2023-02-09T22:56:26.278Z,100.00
2023-02-09T22:58:53.987Z,100.00
2023-02-09T23:01:21.017Z,100.00
2023-02-09T23:03:47.795Z,100.00
2023-02-09T23:06:17.362Z,100.00
2023-02-09T23:08:44.292Z,100.00
2023-02-09T23:11:14.682Z,100.00
2023-02-09T23:13:41.844Z,100.00
2023-02-09T23:16:20.590Z,100.00
2023-02-09T23:18:55.877Z,100.00
2023-02-09T23:21:25.115Z,100.00
2023-02-09T23:23:52.192Z,100.00
2023-02-09T23:26:19.797Z,100.00
2023-02-09T23:28:47.936Z,100.00
2023-02-09T23:31:16.776Z,100.00
2023-02-09T23:33:43.503Z,100.00
2023-02-09T23:36:31.655Z,100.00
2023-02-09T23:39:00.958Z,100.00
2023-02-09T23:41:27.935Z,100.00
2023-02-09T23:43:55.214Z,100.00
2023-02-09T23:46:26.740Z,100.00
2023-02-09T23:48:55.075Z,100.00
2023-02-09T23:51:28.435Z,100.00
2023-02-09T23:53:57.766Z,100.00
2023-02-09T23:56:24.967Z,100.00
2023-02-09T23:58:53.095Z,100.00
